Airfield :
LOGIN :

Register | Disclaimer

   EN    FR    IT 

 










Legend :    VFR   Marginal VFR   IFR   Intensive IFR   Very Intensive IFR
Visi :
Ceiling :
>= 8 km
>= 3000ft
5 to 8 km
1000 to 3000 ft
1500m to 5 km
500 to 1000 ft
800 to 1500m
200 to 500 ft
< 800m
< 200 ft
Symbols :   Thunderstorms  Fog  Heavy snow  Heavy precipitations  Wind > 20 kt
SIGMETs :     Misc.  Thunderstorms  Icing  Turbulence  Mountain Waves  Volcanic Ashes







- Airport Elevation : 392 ft
- IATA code : CDG
- Download approach charts


LFPG - Paris-Aeroport Charles De Gaulle

CURRENT METAR :
  • 191600Z 23006KT 200V270 9999 FEW028 12/04 Q1022 NOSIG

EXPIRED METARs :
  • 191530Z 20008KT 170V230 9999 FEW028 11/04 Q1022 NOSIG
  • 191500Z 22008KT 180V240 9999 FEW028 12/04 Q1022 NOSIG
  • 191430Z 26006KT 230V310 9999 FEW029 12/04 Q1022 NOSIG
  • 191400Z 22007KT 180V240 9999 FEW029 11/03 Q1022 NOSIG
  • 191330Z 21006KT 170V270 9999 FEW020 11/04 Q1022 NOSIG

TAF TAF LFPG
Valid from the 19 at 12:00 until the 20 at 18:00 UTC


191100Z 1912/2018 22005KT 9999 SCT018 TX12/1915Z TN01/2006Z
BECMG 1913/1915 SCT030
BECMG 2000/2002 4000 BR
TEMPO 2003/2010 2000 BR BKN003
PROB40
TEMPO 2004/2009 0500 FG BKN001
BECMG 2011/2013 8000 NSW SCT030
ATIS : +33 1 48 62 10 92
No reported NOTAMs for that airfield.



MET'MAP, your aeronautical weather chart ! - Copyright ORBIFLY December 2007 - Disclaimer

ORBIFLY MET'MAP TEAM :

Programming & Development : Alexandra Zaïnal
Concept & Development : Baudouin d'Aumeries
Co-Development & Prog : Marc-Olivier Méhu
Technical & hardware support : Manuel Goepfert

Contact : metmap@orbifly.com




SOURCES & CREDITS :

   NOAA